sensor_id;sensor_type;location;lat;lon;timestamp;pressure;altitude;pressure_sealevel;temperature;humidity
77877;BME280;67251;50.844;7.978;2023-06-22T00:01:27;99009.28;;;16.74;99.24
77877;BME280;67251;50.844;7.978;2023-06-22T00:03:52;99002.34;;;16.78;100.00
77877;BME280;67251;50.844;7.978;2023-06-22T00:06:18;99004.50;;;16.76;100.00
77877;BME280;67251;50.844;7.978;2023-06-22T00:08:43;99001.66;;;16.71;100.00
77877;BME280;67251;50.844;7.978;2023-06-22T00:11:09;98998.84;;;16.66;100.00
77877;BME280;67251;50.844;7.978;2023-06-22T00:13:34;98997.41;;;16.63;100.00
77877;BME280;67251;50.844;7.978;2023-06-22T00:16:00;98996.25;;;16.59;100.00
77877;BME280;67251;50.844;7.978;2023-06-22T00:18:26;98985.44;;;16.59;99.78
77877;BME280;67251;50.844;7.978;2023-06-22T00:20:54;98989.19;;;16.58;100.00
77877;BME280;67251;50.844;7.978;2023-06-22T00:23:23;98984.88;;;16.57;99.54
77877;BME280;67251;50.844;7.978;2023-06-22T00:25:49;98980.84;;;16.59;99.36
77877;BME280;67251;50.844;7.978;2023-06-22T00:28:14;98984.38;;;16.60;99.53
77877;BME280;67251;50.844;7.978;2023-06-22T00:30:40;98987.69;;;16.62;99.38
77877;BME280;67251;50.844;7.978;2023-06-22T00:33:05;98986.59;;;16.63;99.31
77877;BME280;67251;50.844;7.978;2023-06-22T00:35:32;98984.16;;;16.61;99.50
77877;BME280;67251;50.844;7.978;2023-06-22T00:37:59;98991.44;;;16.61;99.62
77877;BME280;67251;50.844;7.978;2023-06-22T00:40:33;98987.88;;;16.60;99.57
77877;BME280;67251;50.844;7.978;2023-06-22T00:42:59;98988.75;;;16.61;99.39
77877;BME280;67251;50.844;7.978;2023-06-22T00:45:25;98988.13;;;16.59;99.14
77877;BME280;67251;50.844;7.978;2023-06-22T00:47:52;98994.16;;;16.61;99.14
77877;BME280;67251;50.844;7.978;2023-06-22T00:50:22;98991.19;;;16.63;99.43
77877;BME280;67251;50.844;7.978;2023-06-22T00:52:51;99000.69;;;16.65;99.05
77877;BME280;67251;50.844;7.978;2023-06-22T00:55:19;99006.09;;;16.65;98.94
77877;BME280;67251;50.844;7.978;2023-06-22T00:57:48;99006.09;;;16.65;98.95
77877;BME280;67251;50.844;7.978;2023-06-22T01:00:14;99006.94;;;16.66;99.45
77877;BME280;67251;50.844;7.978;2023-06-22T01:02:43;99011.50;;;16.65;99.23
77877;BME280;67251;50.844;7.978;2023-06-22T01:05:16;99010.94;;;16.63;99.18
77877;BME280;67251;50.844;7.978;2023-06-22T01:11:12;99023.63;;;16.63;99.61
77877;BME280;67251;50.844;7.978;2023-06-22T01:13:46;99013.16;;;16.66;100.00
77877;BME280;67251;50.844;7.978;2023-06-22T01:16:29;99020.78;;;16.69;100.00
77877;BME280;67251;50.844;7.978;2023-06-22T01:18:57;99014.34;;;16.70;100.00
77877;BME280;67251;50.844;7.978;2023-06-22T01:21:28;99003.66;;;16.75;100.00
77877;BME280;67251;50.844;7.978;2023-06-22T01:29:27;99000.69;;;16.89;100.00
77877;BME280;67251;50.844;7.978;2023-06-22T01:31:54;98997.28;;;16.93;100.00
77877;BME280;67251;50.844;7.978;2023-06-22T01:34:21;98999.16;;;16.93;100.00
77877;BME280;67251;50.844;7.978;2023-06-22T01:36:49;99004.81;;;16.91;100.00
77877;BME280;67251;50.844;7.978;2023-06-22T01:39:15;99004.00;;;16.91;100.00
77877;BME280;67251;50.844;7.978;2023-06-22T01:41:42;99005.88;;;16.90;100.00
77877;BME280;67251;50.844;7.978;2023-06-22T01:44:08;99001.53;;;16.89;100.00
77877;BME280;67251;50.844;7.978;2023-06-22T01:46:35;98992.56;;;16.89;100.00
77877;BME280;67251;50.844;7.978;2023-06-22T01:52:29;98993.66;;;16.88;99.99
77877;BME280;67251;50.844;7.978;2023-06-22T01:54:54;98997.66;;;16.85;99.97
77877;BME280;67251;50.844;7.978;2023-06-22T01:57:20;99004.94;;;16.84;99.77
77877;BME280;67251;50.844;7.978;2023-06-22T02:00:00;99013.06;;;16.84;99.55
77877;BME280;67251;50.844;7.978;2023-06-22T02:02:39;99018.22;;;16.86;99.87
77877;BME280;67251;50.844;7.978;2023-06-22T02:05:11;99016.09;;;16.88;99.85
77877;BME280;67251;50.844;7.978;2023-06-22T02:10:21;99006.19;;;16.94;100.00
77877;BME280;67251;50.844;7.978;2023-06-22T02:12:48;98999.06;;;16.88;100.00
77877;BME280;67251;50.844;7.978;2023-06-22T02:15:15;99001.19;;;16.85;100.00
77877;BME280;67251;50.844;7.978;2023-06-22T02:17:42;98998.47;;;16.85;100.00
77877;BME280;67251;50.844;7.978;2023-06-22T02:20:13;98987.88;;;16.84;100.00
77877;BME280;67251;50.844;7.978;2023-06-22T02:22:39;98976.03;;;16.85;100.00
77877;BME280;67251;50.844;7.978;2023-06-22T02:25:05;98987.56;;;16.80;100.00
77877;BME280;67251;50.844;7.978;2023-06-22T02:27:30;98981.81;;;16.77;100.00
77877;BME280;67251;50.844;7.978;2023-06-22T02:29:56;98983.69;;;16.76;100.00
77877;BME280;67251;50.844;7.978;2023-06-22T02:32:22;98983.78;;;16.81;100.00
77877;BME280;67251;50.844;7.978;2023-06-22T02:34:47;98991.66;;;16.83;100.00
77877;BME280;67251;50.844;7.978;2023-06-22T02:37:13;98990.84;;;16.82;100.00
77877;BME280;67251;50.844;7.978;2023-06-22T02:39:40;98988.59;;;16.79;100.00
77877;BME280;67251;50.844;7.978;2023-06-22T02:42:06;98993.69;;;16.76;100.00
77877;BME280;67251;50.844;7.978;2023-06-22T02:44:31;98995.56;;;16.75;100.00
77877;BME280;67251;50.844;7.978;2023-06-22T02:46:57;98990.38;;;16.74;100.00
77877;BME280;67251;50.844;7.978;2023-06-22T02:49:23;99001.19;;;16.74;100.00
77877;BME280;67251;50.844;7.978;2023-06-22T02:51:48;98999.31;;;16.74;100.00
77877;BME280;67251;50.844;7.978;2023-06-22T02:54:14;98996.25;;;16.82;100.00
77877;BME280;67251;50.844;7.978;2023-06-22T02:56:39;98999.19;;;16.81;100.00
77877;BME280;67251;50.844;7.978;2023-06-22T02:59:06;99002.72;;;16.81;100.00
77877;BME280;67251;50.844;7.978;2023-06-22T03:01:31;99015.16;;;16.82;100.00
77877;BME280;67251;50.844;7.978;2023-06-22T03:04:03;99008.94;;;16.82;100.00
77877;BME280;67251;50.844;7.978;2023-06-22T03:06:28;99004.59;;;16.81;100.00
77877;BME280;67251;50.844;7.978;2023-06-22T03:09:02;98985.91;;;16.79;100.00
77877;BME280;67251;50.844;7.978;2023-06-22T03:11:29;98983.19;;;16.79;100.00
77877;BME280;67251;50.844;7.978;2023-06-22T03:13:56;98983.44;;;16.78;100.00
77877;BME280;67251;50.844;7.978;2023-06-22T03:16:21;99006.38;;;16.75;100.00
77877;BME280;67251;50.844;7.978;2023-06-22T03:18:46;99016.13;;;16.76;100.00
77877;BME280;67251;50.844;7.978;2023-06-22T03:21:12;99016.13;;;16.76;100.00
77877;BME280;67251;50.844;7.978;2023-06-22T03:23:37;99003.19;;;16.78;100.00
77877;BME280;67251;50.844;7.978;2023-06-22T03:26:03;98997.78;;;16.78;100.00
77877;BME280;67251;50.844;7.978;2023-06-22T03:28:29;99005.66;;;16.80;100.00
77877;BME280;67251;50.844;7.978;2023-06-22T03:30:56;99002.59;;;16.76;100.00
77877;BME280;67251;50.844;7.978;2023-06-22T03:33:22;99008.00;;;16.76;100.00
77877;BME280;67251;50.844;7.978;2023-06-22T03:35:47;99011.28;;;16.78;100.00
77877;BME280;67251;50.844;7.978;2023-06-22T03:38:12;99000.81;;;16.70;100.00
77877;BME280;67251;50.844;7.978;2023-06-22T03:40:38;99001.41;;;16.60;100.00
77877;BME280;67251;50.844;7.978;2023-06-22T03:43:03;99001.53;;;16.54;100.00
77877;BME280;67251;50.844;7.978;2023-06-22T03:45:29;99001.41;;;16.49;100.00
77877;BME280;67251;50.844;7.978;2023-06-22T03:47:54;99001.66;;;16.47;100.00
77877;BME280;67251;50.844;7.978;2023-06-22T03:50:19;98984.16;;;16.50;100.00
77877;BME280;67251;50.844;7.978;2023-06-22T03:52:46;98981.94;;;16.47;100.00
77877;BME280;67251;50.844;7.978;2023-06-22T03:55:11;98984.66;;;16.47;100.00
77877;BME280;67251;50.844;7.978;2023-06-22T03:57:36;98974.41;;;16.49;100.00
77877;BME280;67251;50.844;7.978;2023-06-22T04:00:02;98969.47;;;16.46;100.00
77877;BME280;67251;50.844;7.978;2023-06-22T04:02:30;98971.59;;;16.44;100.00
77877;BME280;67251;50.844;7.978;2023-06-22T04:04:56;98972.41;;;16.44;100.00
77877;BME280;67251;50.844;7.978;2023-06-22T04:07:21;98966.78;;;16.46;100.00
77877;BME280;67251;50.844;7.978;2023-06-22T04:09:46;98966.56;;;16.47;100.00
77877;BME280;67251;50.844;7.978;2023-06-22T04:12:12;98965.25;;;16.50;100.00
77877;BME280;67251;50.844;7.978;2023-06-22T04:14:37;98965.59;;;16.53;100.00
77877;BME280;67251;50.844;7.978;2023-06-22T04:17:03;98970.53;;;16.56;100.00
77877;BME280;67251;50.844;7.978;2023-06-22T04:19:28;98976.25;;;16.60;100.00
77877;BME280;67251;50.844;7.978;2023-06-22T04:21:53;98978.25;;;16.65;100.00
77877;BME280;67251;50.844;7.978;2023-06-22T04:24:19;98978.03;;;16.66;100.00
77877;BME280;67251;50.844;7.978;2023-06-22T04:26:44;98974.03;;;16.69;100.00
77877;BME280;67251;50.844;7.978;2023-06-22T04:29:12;98973.59;;;16.72;100.00
77877;BME280;67251;50.844;7.978;2023-06-22T04:31:38;98964.16;;;16.74;100.00
77877;BME280;67251;50.844;7.978;2023-06-22T04:34:04;98962.28;;;16.75;100.00
77877;BME280;67251;50.844;7.978;2023-06-22T04:36:35;98970.41;;;16.75;100.00
77877;BME280;67251;50.844;7.978;2023-06-22T04:39:07;98971.81;;;16.77;100.00
77877;BME280;67251;50.844;7.978;2023-06-22T04:41:38;98966.50;;;16.82;100.00
77877;BME280;67251;50.844;7.978;2023-06-22T04:44:11;98964.50;;;16.90;100.00
77877;BME280;67251;50.844;7.978;2023-06-22T04:46:37;98962.22;;;16.98;100.00
77877;BME280;67251;50.844;7.978;2023-06-22T04:49:12;98965.97;;;17.09;100.00
77877;BME280;67251;50.844;7.978;2023-06-22T04:51:41;98957.97;;;17.14;100.00
77877;BME280;67251;50.844;7.978;2023-06-22T04:54:08;98954.53;;;17.19;100.00
77877;BME280;67251;50.844;7.978;2023-06-22T04:56:34;98955.44;;;17.24;100.00
77877;BME280;67251;50.844;7.978;2023-06-22T04:59:00;98956.44;;;17.35;100.00
77877;BME280;67251;50.844;7.978;2023-06-22T05:01:26;98954.88;;;17.51;100.00
77877;BME280;67251;50.844;7.978;2023-06-22T05:03:51;98955.38;;;17.65;100.00
77877;BME280;67251;50.844;7.978;2023-06-22T05:06:24;98950.00;;;17.81;100.00
77877;BME280;67251;50.844;7.978;2023-06-22T05:08:59;98947.72;;;18.07;100.00
77877;BME280;67251;50.844;7.978;2023-06-22T05:11:28;98958.03;;;18.27;99.98
77877;BME280;67251;50.844;7.978;2023-06-22T05:13:53;98957.81;;;18.50;98.70
77877;BME280;67251;50.844;7.978;2023-06-22T05:16:20;98948.00;;;18.66;97.63
77877;BME280;67251;50.844;7.978;2023-06-22T05:18:53;98952.31;;;18.84;96.32
77877;BME280;67251;50.844;7.978;2023-06-22T05:21:23;98950.16;;;19.08;95.34
77877;BME280;67251;50.844;7.978;2023-06-22T05:23:50;98941.94;;;19.25;94.20
77877;BME280;67251;50.844;7.978;2023-06-22T05:26:15;98938.31;;;19.41;93.23
77877;BME280;67251;50.844;7.978;2023-06-22T05:28:41;98932.88;;;19.41;90.64
77877;BME280;67251;50.844;7.978;2023-06-22T05:31:06;98933.78;;;19.52;90.07
77877;BME280;67251;50.844;7.978;2023-06-22T05:33:31;98922.44;;;19.55;90.78
77877;BME280;67251;50.844;7.978;2023-06-22T05:35:57;98932.63;;;19.70;90.55
77877;BME280;67251;50.844;7.978;2023-06-22T05:38:22;98934.72;;;19.95;89.63
77877;BME280;67251;50.844;7.978;2023-06-22T05:40:47;98921.53;;;20.13;89.10
77877;BME280;67251;50.844;7.978;2023-06-22T05:43:13;98917.38;;;20.38;88.01
77877;BME280;67251;50.844;7.978;2023-06-22T05:45:38;98919.13;;;20.59;86.99
77877;BME280;67251;50.844;7.978;2023-06-22T05:48:04;98923.19;;;20.52;86.57
77877;BME280;67251;50.844;7.978;2023-06-22T05:50:29;98927.44;;;20.37;86.96
77877;BME280;67251;50.844;7.978;2023-06-22T05:52:55;98922.78;;;20.33;86.33
77877;BME280;67251;50.844;7.978;2023-06-22T05:55:20;98927.66;;;20.36;85.51
77877;BME280;67251;50.844;7.978;2023-06-22T05:57:45;98927.38;;;20.32;83.74
77877;BME280;67251;50.844;7.978;2023-06-22T06:00:11;98935.44;;;20.59;84.23
77877;BME280;67251;50.844;7.978;2023-06-22T06:02:37;98927.91;;;21.70;80.43
77877;BME280;67251;50.844;7.978;2023-06-22T06:05:09;98920.72;;;23.60;72.89
77877;BME280;67251;50.844;7.978;2023-06-22T06:07:34;98916.28;;;24.85;67.88
77877;BME280;67251;50.844;7.978;2023-06-22T06:10:00;98932.03;;;23.87;68.76
77877;BME280;67251;50.844;7.978;2023-06-22T06:12:26;98923.66;;;23.34;71.58
77877;BME280;67251;50.844;7.978;2023-06-22T06:14:51;98927.41;;;23.43;73.66
77877;BME280;67251;50.844;7.978;2023-06-22T06:17:18;98923.50;;;24.23;70.66
77877;BME280;67251;50.844;7.978;2023-06-22T06:19:43;98921.50;;;25.24;67.21
77877;BME280;67251;50.844;7.978;2023-06-22T06:22:09;98916.19;;;26.78;62.11
77877;BME280;67251;50.844;7.978;2023-06-22T06:24:34;98918.94;;;27.41;60.18
77877;BME280;67251;50.844;7.978;2023-06-22T06:26:59;98913.00;;;28.46;54.72
77877;BME280;67251;50.844;7.978;2023-06-22T06:29:25;98929.34;;;28.83;52.82
77877;BME280;67251;50.844;7.978;2023-06-22T06:31:50;98921.06;;;29.22;51.88
77877;BME280;67251;50.844;7.978;2023-06-22T06:34:16;98913.75;;;28.61;51.79
77877;BME280;67251;50.844;7.978;2023-06-22T06:36:41;98919.78;;;29.81;49.07
77877;BME280;67251;50.844;7.978;2023-06-22T06:39:07;98920.31;;;30.76;47.90
77877;BME280;67251;50.844;7.978;2023-06-22T06:41:32;98910.69;;;31.12;45.61
77877;BME280;67251;50.844;7.978;2023-06-22T06:43:57;98915.47;;;32.32;44.12
77877;BME280;67251;50.844;7.978;2023-06-22T06:46:23;98912.53;;;32.74;43.18
77877;BME280;67251;50.844;7.978;2023-06-22T06:48:48;98911.41;;;31.51;43.26
77877;BME280;67251;50.844;7.978;2023-06-22T06:51:14;98911.25;;;31.47;43.32
77877;BME280;67251;50.844;7.978;2023-06-22T06:53:39;98910.38;;;30.84;45.11
77877;BME280;67251;50.844;7.978;2023-06-22T06:56:04;98911.66;;;29.67;48.03
77877;BME280;67251;50.844;7.978;2023-06-22T06:58:30;98920.06;;;29.10;50.49
77877;BME280;67251;50.844;7.978;2023-06-22T07:00:56;98920.00;;;28.21;53.32
77877;BME280;67251;50.844;7.978;2023-06-22T07:03:21;98928.50;;;27.66;55.87
77877;BME280;67251;50.844;7.978;2023-06-22T07:05:47;98928.03;;;27.28;56.67
77877;BME280;67251;50.844;7.978;2023-06-22T07:08:12;98925.94;;;26.97;57.73
77877;BME280;67251;50.844;7.978;2023-06-22T07:10:37;98926.63;;;26.89;57.84
77877;BME280;67251;50.844;7.978;2023-06-22T07:13:03;98913.34;;;26.55;58.35
77877;BME280;67251;50.844;7.978;2023-06-22T07:15:28;98910.88;;;26.40;59.36
77877;BME280;67251;50.844;7.978;2023-06-22T07:17:53;98904.41;;;26.03;60.04
77877;BME280;67251;50.844;7.978;2023-06-22T07:20:19;98901.91;;;26.34;59.74
77877;BME280;67251;50.844;7.978;2023-06-22T07:22:45;98888.84;;;26.59;59.97
77877;BME280;67251;50.844;7.978;2023-06-22T07:25:10;98884.44;;;26.85;58.78
77877;BME280;67251;50.844;7.978;2023-06-22T07:27:46;98864.16;;;28.21;54.24
77877;BME280;67251;50.844;7.978;2023-06-22T07:30:21;98850.00;;;29.80;50.84
77877;BME280;67251;50.844;7.978;2023-06-22T07:32:46;98848.00;;;32.37;45.36
77877;BME280;67251;50.844;7.978;2023-06-22T07:35:12;98863.34;;;33.48;42.13
77877;BME280;67251;50.844;7.978;2023-06-22T07:37:37;98871.00;;;32.62;43.00
77877;BME280;67251;50.844;7.978;2023-06-22T07:40:03;98879.16;;;31.55;45.86
77877;BME280;67251;50.844;7.978;2023-06-22T07:42:31;98875.22;;;31.56;45.90
77877;BME280;67251;50.844;7.978;2023-06-22T07:44:58;98881.41;;;32.07;44.52
77877;BME280;67251;50.844;7.978;2023-06-22T07:47:23;98874.84;;;32.12;44.82
77877;BME280;67251;50.844;7.978;2023-06-22T07:49:51;98860.88;;;31.96;44.72
77877;BME280;67251;50.844;7.978;2023-06-22T07:52:17;98849.59;;;31.26;46.81
77877;BME280;67251;50.844;7.978;2023-06-22T07:54:42;98851.28;;;30.97;47.48
77877;BME280;67251;50.844;7.978;2023-06-22T07:57:08;98854.22;;;30.71;47.84
77877;BME280;67251;50.844;7.978;2023-06-22T07:59:33;98851.63;;;30.37;48.84
77877;BME280;67251;50.844;7.978;2023-06-22T08:01:58;98849.66;;;29.90;50.48
77877;BME280;67251;50.844;7.978;2023-06-22T08:04:24;98843.38;;;29.64;51.00
77877;BME280;67251;50.844;7.978;2023-06-22T08:06:49;98842.53;;;29.81;51.29
77877;BME280;67251;50.844;7.978;2023-06-22T08:09:15;98822.53;;;30.39;49.52
77877;BME280;67251;50.844;7.978;2023-06-22T08:11:40;98824.25;;;30.23;49.78
77877;BME280;67251;50.844;7.978;2023-06-22T08:14:05;98823.22;;;30.36;49.24
77877;BME280;67251;50.844;7.978;2023-06-22T08:16:31;98828.69;;;30.45;49.44
77877;BME280;67251;50.844;7.978;2023-06-22T08:18:56;98836.50;;;30.34;49.75
77877;BME280;67251;50.844;7.978;2023-06-22T08:21:22;98828.72;;;30.36;49.58
77877;BME280;67251;50.844;7.978;2023-06-22T08:23:48;98830.56;;;30.53;49.10
77877;BME280;67251;50.844;7.978;2023-06-22T08:26:14;98839.00;;;30.57;49.56
77877;BME280;67251;50.844;7.978;2023-06-22T08:28:40;98841.50;;;30.79;49.58
77877;BME280;67251;50.844;7.978;2023-06-22T08:31:05;98826.56;;;31.01;47.91
77877;BME280;67251;50.844;7.978;2023-06-22T08:33:30;98826.19;;;31.23;46.19
77877;BME280;67251;50.844;7.978;2023-06-22T08:35:57;98819.25;;;32.04;44.38
77877;BME280;67251;50.844;7.978;2023-06-22T08:38:23;98801.31;;;32.88;42.61
77877;BME280;67251;50.844;7.978;2023-06-22T08:40:48;98790.97;;;34.13;40.31
77877;BME280;67251;50.844;7.978;2023-06-22T08:43:14;98791.28;;;34.58;38.89
77877;BME280;67251;50.844;7.978;2023-06-22T08:45:40;98788.91;;;34.10;39.08
77877;BME280;67251;50.844;7.978;2023-06-22T08:48:05;98794.75;;;33.61;38.91
77877;BME280;67251;50.844;7.978;2023-06-22T08:50:30;98794.31;;;32.90;42.16
77877;BME280;67251;50.844;7.978;2023-06-22T08:52:56;98791.81;;;33.85;37.73
77877;BME280;67251;50.844;7.978;2023-06-22T08:55:21;98776.50;;;33.91;36.14
77877;BME280;67251;50.844;7.978;2023-06-22T08:57:46;98781.47;;;34.14;36.49
77877;BME280;67251;50.844;7.978;2023-06-22T09:00:12;98777.56;;;33.71;36.41
77877;BME280;67251;50.844;7.978;2023-06-22T09:02:43;98779.47;;;32.58;38.29
77877;BME280;67251;50.844;7.978;2023-06-22T09:05:09;98774.13;;;32.04;40.43
77877;BME280;67251;50.844;7.978;2023-06-22T09:07:34;98767.44;;;32.17;40.43
77877;BME280;67251;50.844;7.978;2023-06-22T09:10:00;98773.16;;;31.63;41.30
77877;BME280;67251;50.844;7.978;2023-06-22T09:12:25;98775.66;;;30.81;41.54
77877;BME280;67251;50.844;7.978;2023-06-22T09:14:52;98772.09;;;31.01;41.52
77877;BME280;67251;50.844;7.978;2023-06-22T09:17:34;98768.03;;;31.20;42.03
77877;BME280;67251;50.844;7.978;2023-06-22T09:20:00;98760.81;;;31.27;41.57
77877;BME280;67251;50.844;7.978;2023-06-22T09:22:26;98765.63;;;30.97;43.01
77877;BME280;67251;50.844;7.978;2023-06-22T09:24:55;98759.78;;;30.48;42.15
77877;BME280;67251;50.844;7.978;2023-06-22T09:27:21;98750.97;;;31.51;42.04
77877;BME280;67251;50.844;7.978;2023-06-22T09:29:47;98740.13;;;32.52;39.61
77877;BME280;67251;50.844;7.978;2023-06-22T09:32:13;98735.50;;;32.08;39.64
77877;BME280;67251;50.844;7.978;2023-06-22T09:34:38;98739.88;;;32.09;38.78
77877;BME280;67251;50.844;7.978;2023-06-22T09:37:04;98727.00;;;32.37;39.71
77877;BME280;67251;50.844;7.978;2023-06-22T09:39:29;98715.53;;;32.51;38.74
77877;BME280;67251;50.844;7.978;2023-06-22T09:41:54;98714.75;;;32.01;38.90
77877;BME280;67251;50.844;7.978;2023-06-22T09:44:20;98717.59;;;31.23;41.76
77877;BME280;67251;50.844;7.978;2023-06-22T09:46:45;98708.28;;;31.27;41.06
77877;BME280;67251;50.844;7.978;2023-06-22T09:49:10;98705.47;;;31.61;40.44
77877;BME280;67251;50.844;7.978;2023-06-22T09:51:36;98697.91;;;32.06;39.33
77877;BME280;67251;50.844;7.978;2023-06-22T09:54:01;98690.66;;;31.90;39.04
77877;BME280;67251;50.844;7.978;2023-06-22T09:56:27;98680.34;;;31.41;39.49
77877;BME280;67251;50.844;7.978;2023-06-22T09:58:53;98683.47;;;30.65;40.79
77877;BME280;67251;50.844;7.978;2023-06-22T10:01:18;98675.19;;;30.65;41.77
77877;BME280;67251;50.844;7.978;2023-06-22T10:03:46;98674.25;;;30.61;42.18
77877;BME280;67251;50.844;7.978;2023-06-22T10:06:11;98675.25;;;30.05;43.23
77877;BME280;67251;50.844;7.978;2023-06-22T10:08:37;98671.59;;;29.63;43.44
77877;BME280;67251;50.844;7.978;2023-06-22T10:11:05;98675.41;;;30.09;43.30
77877;BME280;67251;50.844;7.978;2023-06-22T10:13:30;98666.66;;;30.07;43.11
77877;BME280;67251;50.844;7.978;2023-06-22T10:15:56;98664.03;;;30.82;42.50
77877;BME280;67251;50.844;7.978;2023-06-22T10:18:21;98644.16;;;31.34;40.82
77877;BME280;67251;50.844;7.978;2023-06-22T10:20:48;98647.66;;;30.56;42.11
77877;BME280;67251;50.844;7.978;2023-06-22T10:23:15;98646.00;;;31.30;40.82
77877;BME280;67251;50.844;7.978;2023-06-22T10:25:40;98663.09;;;30.36;41.71
77877;BME280;67251;50.844;7.978;2023-06-22T10:28:06;98652.03;;;30.78;42.61
77877;BME280;67251;50.844;7.978;2023-06-22T10:30:32;98655.88;;;30.44;42.12
77877;BME280;67251;50.844;7.978;2023-06-22T10:32:58;98636.22;;;30.99;42.23
77877;BME280;67251;50.844;7.978;2023-06-22T10:35:23;98634.38;;;31.61;41.23
77877;BME280;67251;50.844;7.978;2023-06-22T10:37:48;98642.50;;;31.21;40.52
77877;BME280;67251;50.844;7.978;2023-06-22T10:40:15;98642.69;;;30.49;41.80
77877;BME280;67251;50.844;7.978;2023-06-22T10:42:41;98637.25;;;29.61;44.26
77877;BME280;67251;50.844;7.978;2023-06-22T10:45:07;98641.31;;;28.90;46.08
77877;BME280;67251;50.844;7.978;2023-06-22T10:47:33;98638.38;;;28.26;47.66
77877;BME280;67251;50.844;7.978;2023-06-22T10:49:59;98634.97;;;28.12;49.39
77877;BME280;67251;50.844;7.978;2023-06-22T10:52:24;98626.00;;;27.80;50.20
77877;BME280;67251;50.844;7.978;2023-06-22T10:54:50;98623.94;;;27.46;51.64
77877;BME280;67251;50.844;7.978;2023-06-22T10:57:15;98627.03;;;26.91;53.93
77877;BME280;67251;50.844;7.978;2023-06-22T10:59:40;98635.78;;;26.70;54.58
77877;BME280;67251;50.844;7.978;2023-06-22T11:02:06;98667.09;;;26.47;54.08
77877;BME280;67251;50.844;7.978;2023-06-22T11:04:31;98711.78;;;26.34;55.10
77877;BME280;67251;50.844;7.978;2023-06-22T11:06:56;98741.88;;;26.25;56.58
77877;BME280;67251;50.844;7.978;2023-06-22T11:09:22;98759.88;;;26.04;56.96
77877;BME280;67251;50.844;7.978;2023-06-22T11:11:49;98768.00;;;25.81;56.32
77877;BME280;67251;50.844;7.978;2023-06-22T11:14:14;98758.19;;;25.61;58.68
77877;BME280;67251;50.844;7.978;2023-06-22T11:16:40;98753.38;;;25.39;60.72
77877;BME280;67251;50.844;7.978;2023-06-22T11:19:05;98732.22;;;25.26;61.50
77877;BME280;67251;50.844;7.978;2023-06-22T11:21:31;98716.59;;;25.13;65.01
77877;BME280;67251;50.844;7.978;2023-06-22T11:23:57;98698.03;;;25.10;67.95
77877;BME280;67251;50.844;7.978;2023-06-22T11:26:23;98686.09;;;25.01;67.24
77877;BME280;67251;50.844;7.978;2023-06-22T11:28:49;98679.16;;;25.08;68.50
77877;BME280;67251;50.844;7.978;2023-06-22T11:31:14;98666.53;;;25.54;67.34
77877;BME280;67251;50.844;7.978;2023-06-22T11:33:40;98671.63;;;25.74;67.92
77877;BME280;67251;50.844;7.978;2023-06-22T11:36:05;98676.81;;;26.17;66.66
77877;BME280;67251;50.844;7.978;2023-06-22T11:38:31;98662.63;;;26.37;65.38
77877;BME280;67251;50.844;7.978;2023-06-22T11:40:58;98639.06;;;26.36;65.62
77877;BME280;67251;50.844;7.978;2023-06-22T11:43:23;98638.03;;;26.46;65.94
77877;BME280;67251;50.844;7.978;2023-06-22T11:45:48;98637.22;;;26.90;64.41
77877;BME280;67251;50.844;7.978;2023-06-22T11:48:14;98636.47;;;27.21;64.29
77877;BME280;67251;50.844;7.978;2023-06-22T11:50:39;98635.94;;;27.50;62.74
77877;BME280;67251;50.844;7.978;2023-06-22T11:53:05;98629.69;;;27.67;62.08
77877;BME280;67251;50.844;7.978;2023-06-22T11:55:30;98619.00;;;27.65;61.60
77877;BME280;67251;50.844;7.978;2023-06-22T11:57:57;98613.94;;;27.50;62.71
77877;BME280;67251;50.844;7.978;2023-06-22T12:00:25;98616.63;;;27.72;62.73
77877;BME280;67251;50.844;7.978;2023-06-22T12:02:51;98628.97;;;27.92;62.55
77877;BME280;67251;50.844;7.978;2023-06-22T12:05:21;98631.72;;;28.01;61.83
77877;BME280;67251;50.844;7.978;2023-06-22T12:07:47;98629.78;;;27.93;62.96
77877;BME280;67251;50.844;7.978;2023-06-22T12:10:12;98645.94;;;27.46;62.96
77877;BME280;67251;50.844;7.978;2023-06-22T12:12:38;98670.41;;;26.80;65.32
77877;BME280;67251;50.844;7.978;2023-06-22T12:15:03;98685.31;;;26.15;67.86
77877;BME280;67251;50.844;7.978;2023-06-22T12:17:29;98696.53;;;25.31;70.14
77877;BME280;67251;50.844;7.978;2023-06-22T12:19:55;98679.00;;;24.67;71.34
77877;BME280;67251;50.844;7.978;2023-06-22T12:22:20;98645.63;;;24.65;72.14
77877;BME280;67251;50.844;7.978;2023-06-22T12:24:46;98626.75;;;24.82;68.46
77877;BME280;67251;50.844;7.978;2023-06-22T12:27:11;98602.00;;;25.20;67.51
77877;BME280;67251;50.844;7.978;2023-06-22T12:29:37;98584.25;;;25.45;64.95
77877;BME280;67251;50.844;7.978;2023-06-22T12:32:02;98577.31;;;26.03;64.01
77877;BME280;67251;50.844;7.978;2023-06-22T12:34:28;98561.34;;;26.72;60.64
77877;BME280;67251;50.844;7.978;2023-06-22T12:36:53;98556.94;;;27.16;60.43
77877;BME280;67251;50.844;7.978;2023-06-22T12:39:20;98549.06;;;27.00;59.91
77877;BME280;67251;50.844;7.978;2023-06-22T12:41:45;98551.84;;;27.40;60.56
77877;BME280;67251;50.844;7.978;2023-06-22T12:44:11;98550.91;;;27.54;60.13
77877;BME280;67251;50.844;7.978;2023-06-22T12:46:36;98545.78;;;26.90;59.55
77877;BME280;67251;50.844;7.978;2023-06-22T12:49:04;98552.03;;;26.50;58.62
77877;BME280;67251;50.844;7.978;2023-06-22T12:51:29;98540.72;;;26.74;58.92
77877;BME280;67251;50.844;7.978;2023-06-22T12:53:55;98530.34;;;27.42;56.69
77877;BME280;67251;50.844;7.978;2023-06-22T12:56:20;98536.09;;;27.23;52.57
77877;BME280;67251;50.844;7.978;2023-06-22T12:58:45;98524.78;;;26.32;54.73
77877;BME280;67251;50.844;7.978;2023-06-22T13:01:14;98523.25;;;26.70;57.20
77877;BME280;67251;50.844;7.978;2023-06-22T13:03:43;98512.63;;;27.09;53.31
77877;BME280;67251;50.844;7.978;2023-06-22T13:06:08;98512.88;;;27.30;52.73
77877;BME280;67251;50.844;7.978;2023-06-22T13:08:34;98511.06;;;27.16;52.20